El Paso, TX (88524)

12:38 PM MDT on August 21, 2014 (GMT -0600)
SAN CLEMENTE ESTATES | Change Station
CLOSE
Current Station
Personal Weather Station
Location: EL PASO, TX
Elevation: 4606 ft
Nearby Weather Stations

Elev 4606 ft 31.82 °N, 106.50 °W | Updated 2 seconds ago

Partly Cloudy
Partly Cloudy
81.3 °F
Feels Like 81 °F
N
0.9
Wind Variable Wind from WSW
Gusts 5.8 mph

Today
High -- | Low -- °F
--% Chance of Precip.
Yesterday
High -- | Low -- °F
Precip. -- in
6:34 AM 7:42 PM
Waning Crescent, 13% visible
Pressure 29.85 in
Visibility 10.0 miles
Clouds Few 10000 ft
Few 25000 ft
Heat Index 81 °F
Dew Point 52 °F
Humidity 37%
Rainfall 0.00 in
Snow Depth Not available.
UV 0.0 out of 12
Pollen 7.90 out of 12
Air Quality Not available.
Flu Activity Not available.
METAR KELP 211751Z 20010KT 10SM FEW100 FEW250 32/10 A3009 RMK AO2 SLP107 T03170100 10317 20200 50003

More Conditions Fewer Conditions

Pressure 29.85 in
Visibility 10.0 miles
Clouds Few 10000 ft
Few 25000 ft
Heat Index 81 °F
Dew Point 52 °F
Humidity 37%
Rainfall 0.00 in
Snow Depth Not available.
UV 0.0 out of 12
Pollen 7.90 out of 12
Air Quality Not available.
Flu Activity Not available.
METAR KELP 211751Z 20010KT 10SM FEW100 FEW250 32/10 A3009 RMK AO2 SLP107 T03170100 10317 20200 50003

More Conditions Fewer Conditions

10-Day Weather Forecast

Almanac

Astronomy

Aug. 21, 2014 Rise Set
Actual Time 6:34 AM MDT 7:42 PM MDT
Civil Twilight 6:09 AM MDT 8:07 PM MDT
Nautical Twilight 5:38 AM MDT 8:38 PM MDT
Astronomical Twilight 5:07 AM MDT 9:09 PM MDT
Moon 3:12 AM MDT 5:08 PM MDT
Length of Visible Light 13h 58m
Length of Day
13h 08m
Tomorrow will be 1m 46s shorter.
Waning Crescent, 13% of the Moon is Illuminated
Today
Waning Crescent
Aug 25
New
Sep 2
First Quarter
Sep 8
Full
Sep 15
Last Quarter

Today's Extremes

State Highs State Lows

Community

WunderPhotos

Upload Photos

1,745,996 photos uploaded!

WunderBlogs® & News

Nearby

Snow Depth

Station Depth Elevation
No new snow has been reported.

Earthquake Activity

City Distance Mag. Time & Date
No recent earthquake activity has been reported nearby.
Minimum magnitude displayed is 2.5.

Coastal Water Temperatures

Place Temperature
No Stations Reporting

Nearby Weather Stations